Weather at Vilyuisk Airport

Public forecast

Using degrees Celsius for public forecast. Weather courtesy of forecast.io.

Closest aviation weather report (METAR) to Vilyuisk Airport

Closest report is Mirny Airport, 220.0 nm (407.5 km) WSW. Retrieved 2021/06/21 09:30 UTC (50 minutes ago):

UERR 210930Z 16004MPS 9999 SCT026 31/08 Q1003 R25/CLRD60 NOSIG RMK QFE722/0962

Closest aviation forecast (TAF) to Vilyuisk Airport

Closest forecast is Mirny Airport, 220.0 nm (407.5 km) WSW. Retrieved 2021/06/21 09:22 UTC (58 minutes ago):

TAF UERR 210800Z 2109/2209 20004G09MPS 9999 BKN023CB TX32/2206Z TN15/2118Z